Time;durP1;ratioP1;P1;durP2;ratioP2;P2;SDS_P1;SDS_P2;PMS_P1;PMS_P2;Temp;Humidity;BMP_temperature;BMP_pressure;BME280_temperature;BME280_humidity;BME280_pressure;Samples;Min_cycle;Max_cycle;Signal;HPM_P1;HPM_P2
2023/03/14 00:01:44;;;;;;;2.22;1.25;;;;;;;10.35;100.00;96772.44;4118451;28;20305;-49
2023/03/14 00:03:48;;;;;;;4.20;1.23;;;;;;;10.26;100.00;96793.31;4101287;28;20199;-49
2023/03/14 00:05:49;;;;;;;2.17;1.25;;;;;;;10.16;100.00;96781.69;4135893;28;20300;-48
2023/03/14 00:07:51;;;;;;;2.97;1.02;;;;;;;10.08;100.00;96774.13;4136674;28;20750;-49
2023/03/14 00:09:53;;;;;;;1.60;1.20;;;;;;;10.01;100.00;96774.41;4119641;28;20225;-49
2023/03/14 00:11:54;;;;;;;3.45;1.77;;;;;;;9.99;100.00;96759.41;4117255;28;20913;-48
2023/03/14 00:13:56;;;;;;;1.75;1.60;;;;;;;9.88;100.00;96747.78;4121788;28;20293;-48
2023/03/14 00:16:04;;;;;;;2.30;1.42;;;;;;;9.83;100.00;96749.75;4119868;28;20242;-49
2023/03/14 00:18:05;;;;;;;2.75;1.23;;;;;;;9.78;100.00;96742.44;4104876;28;20577;-49
2023/03/14 00:20:08;;;;;;;1.33;0.90;;;;;;;9.78;100.00;96736.16;4117761;28;20238;-48
2023/03/14 00:22:09;;;;;;;3.88;1.83;;;;;;;9.80;100.00;96739.41;4133663;28;20235;-48
2023/03/14 00:24:11;;;;;;;4.53;1.20;;;;;;;9.81;100.00;96735.59;4133843;28;20288;-48
2023/03/14 00:26:16;;;;;;;1.85;1.20;;;;;;;9.80;100.00;96725.72;4085458;28;20215;-49
2023/03/14 00:28:17;;;;;;;6.18;1.75;;;;;;;9.79;100.00;96722.22;4119415;28;20241;-49
2023/03/14 00:30:19;;;;;;;4.50;1.17;;;;;;;9.80;100.00;96717.53;4110437;28;20215;-48
2023/03/14 00:32:21;;;;;;;2.47;1.95;;;;;;;9.78;100.00;96717.03;4118335;28;20325;-50
2023/03/14 00:34:23;;;;;;;2.45;1.60;;;;;;;9.77;100.00;96718.13;4124307;28;20252;-49
2023/03/14 00:36:24;;;;;;;1.75;1.27;;;;;;;9.78;100.00;96719.75;4135430;28;20243;-48
2023/03/14 00:38:27;;;;;;;3.47;1.35;;;;;;;9.76;100.00;96721.97;4120163;28;20214;-50
2023/03/14 00:40:28;;;;;;;3.13;1.50;;;;;;;9.80;100.00;96725.72;4117684;28;20309;-48
2023/03/14 00:42:31;;;;;;;2.05;1.15;;;;;;;9.76;100.00;96727.44;4119069;28;20261;-49
2023/03/14 00:44:33;;;;;;;1.77;1.13;;;;;;;9.76;100.00;96738.34;4119295;28;20217;-49
2023/03/14 00:46:35;;;;;;;4.70;1.63;;;;;;;9.81;100.00;96735.59;4120148;28;20210;-49
2023/03/14 00:48:37;;;;;;;3.50;1.40;;;;;;;9.83;100.00;96727.91;4124925;28;20271;-48
2023/03/14 00:50:39;;;;;;;2.90;1.40;;;;;;;9.84;100.00;96732.25;4119294;28;20249;-48
2023/03/14 00:52:41;;;;;;;8.82;1.55;;;;;;;9.83;100.00;96731.44;4118625;28;20312;-49
2023/03/14 00:54:42;;;;;;;2.33;1.10;;;;;;;9.79;100.00;96729.56;4133686;28;20213;-49
2023/03/14 00:56:44;;;;;;;3.33;1.80;;;;;;;9.78;100.00;96714.28;4117727;28;20216;-48
2023/03/14 00:58:46;;;;;;;2.97;1.23;;;;;;;9.78;100.00;96727.94;4133573;28;20750;-50
2023/03/14 01:00:47;;;;;;;1.33;1.00;;;;;;;9.77;100.00;96726.31;4121111;28;20216;-50
2023/03/14 01:02:49;;;;;;;3.60;1.67;;;;;;;9.77;100.00;96723.59;4137986;28;20404;-48
2023/03/14 01:04:51;;;;;;;2.05;1.35;;;;;;;9.81;100.00;96725.47;4121204;28;20198;-50
2023/03/14 01:06:53;;;;;;;1.10;1.10;;;;;;;9.84;100.00;96732.25;4125347;28;20209;-49
2023/03/14 01:08:55;;;;;;;3.10;1.42;;;;;;;9.77;100.00;96729.06;4122450;28;20283;-49
2023/03/14 01:10:57;;;;;;;2.35;1.48;;;;;;;9.89;100.00;96729.50;4136386;28;20233;-49
2023/03/14 01:12:59;;;;;;;4.40;1.40;;;;;;;9.85;100.00;96731.16;4121364;28;20257;-49
2023/03/14 01:15:00;;;;;;;2.65;1.13;;;;;;;9.90;100.00;96725.66;4123352;28;20249;-48
2023/03/14 01:17:02;;;;;;;2.05;1.30;;;;;;;10.00;100.00;96730.97;4137188;28;20276;-49
2023/03/14 01:19:04;;;;;;;2.65;1.60;;;;;;;9.99;100.00;96737.56;4128386;28;20305;-49
2023/03/14 01:21:19;;;;;;;1.92;1.42;;;;;;;9.96;100.00;96727.22;4121516;28;20297;-49
2023/03/14 01:23:20;;;;;;;6.13;1.73;;;;;;;9.98;100.00;96716.81;4118776;28;20349;-49
2023/03/14 01:25:22;;;;;;;2.25;1.58;;;;;;;9.91;100.00;96730.84;4121692;28;20233;-48
2023/03/14 01:27:24;;;;;;;2.78;1.60;;;;;;;9.84;100.00;96724.06;4122054;28;20304;-49
2023/03/14 01:29:25;;;;;;;3.60;2.13;;;;;;;9.80;100.00;96733.94;4119699;28;20754;-49
2023/03/14 01:31:27;;;;;;;1.63;1.13;;;;;;;9.81;100.00;96730.13;4103996;28;20208;-49
2023/03/14 01:33:32;;;;;;;3.83;2.13;;;;;;;9.77;100.00;96726.31;4121332;28;20281;-49
2023/03/14 01:35:34;;;;;;;3.33;1.50;;;;;;;9.72;100.00;96729.94;4123070;28;20238;-49
2023/03/14 01:37:36;;;;;;;3.80;1.25;;;;;;;9.73;100.00;96717.06;4123270;28;20308;-48
2023/03/14 01:39:38;;;;;;;1.95;1.70;;;;;;;9.74;100.00;96707.81;4121892;28;20210;-48
2023/03/14 01:41:40;;;;;;;2.47;1.63;;;;;;;9.70;100.00;96695.81;4125467;28;20297;-49
2023/03/14 01:43:41;;;;;;;5.10;1.70;;;;;;;9.69;100.00;96694.19;4104272;28;20369;-49
2023/03/14 01:46:05;;;;;;;2.83;1.25;;;;;;;9.64;100.00;96716.09;4127018;28;20292;-48
2023/03/14 01:48:10;;;;;;;2.90;1.38;;;;;;;9.63;100.00;96707.06;4119905;28;20242;-49
2023/03/14 01:50:12;;;;;;;4.15;1.35;;;;;;;9.66;100.00;96705.69;4135194;28;20225;-49
2023/03/14 01:52:17;;;;;;;4.80;1.80;;;;;;;9.62;100.00;96693.72;4127477;28;20277;-50
2023/03/14 01:54:18;;;;;;;5.03;1.40;;;;;;;9.61;100.00;96681.97;4119041;28;20703;-49
2023/03/14 01:56:20;;;;;;;6.07;1.90;;;;;;;9.56;100.00;96683.94;4129677;28;20242;-50
2023/03/14 01:58:23;;;;;;;2.90;1.50;;;;;;;9.54;100.00;96686.16;4126195;28;20341;-48
2023/03/14 02:00:25;;;;;;;3.30;1.20;;;;;;;9.54;100.00;96664.31;4133991;28;20698;-49
2023/03/14 02:02:29;;;;;;;4.07;1.27;;;;;;;9.55;100.00;96665.94;4103419;28;20277;-49
2023/03/14 02:04:33;;;;;;;2.28;1.40;;;;;;;9.48;100.00;96668.19;4125521;28;20340;-50
2023/03/14 02:06:42;;;;;;;3.85;1.35;;;;;;;9.51;100.00;96675.81;4111584;28;20713;-49
2023/03/14 02:08:48;;;;;;;3.25;1.52;;;;;;;9.49;100.00;96680.75;4120965;28;20293;-48
2023/03/14 02:10:51;;;;;;;4.18;1.52;;;;;;;9.64;100.00;96653.28;4122777;28;20214;-49
2023/03/14 02:12:56;;;;;;;2.45;1.40;;;;;;;9.67;100.00;96658.19;4107064;28;20250;-48
2023/03/14 02:14:57;;;;;;;2.55;1.30;;;;;;;9.59;100.00;96653.31;4123487;28;20317;-48
2023/03/14 02:17:01;;;;;;;2.67;1.42;;;;;;;9.65;100.00;96649.44;4135578;28;20650;-48
2023/03/14 02:19:02;;;;;;;1.30;1.10;;;;;;;9.70;100.00;96649.41;4118456;28;20302;-47
2023/03/14 02:21:11;;;;;;;4.00;1.33;;;;;;;9.77;100.00;96647.13;4119697;28;20234;-49
2023/03/14 02:23:15;;;;;;;3.90;1.67;;;;;;;9.77;100.00;96647.13;4106352;28;20326;-49
2023/03/14 02:25:34;;;;;;;2.55;1.75;;;;;;;9.82;100.00;96652.53;4123938;28;20237;-49
2023/03/14 02:27:36;;;;;;;3.15;1.30;;;;;;;9.81;100.00;96642.72;4135736;28;20651;-48
2023/03/14 02:29:45;;;;;;;3.38;1.27;;;;;;;9.81;100.00;96642.72;4126240;28;20261;-48
2023/03/14 02:31:46;;;;;;;4.13;1.85;;;;;;;9.83;100.00;96621.38;4110951;28;20536;-49
2023/03/14 02:33:49;;;;;;;2.50;0.98;;;;;;;9.82;100.00;96638.88;4138699;28;20297;-48
2023/03/14 02:36:03;;;;;;;13.93;3.20;;;;;;;9.81;100.00;96631.78;4118237;28;20242;-48
2023/03/14 02:39:01;;;;;;;4.50;2.08;;;;;;;9.88;100.00;96635.00;4125987;28;20206;-48
2023/03/14 02:41:03;;;;;;;1.42;1.13;;;;;;;9.86;100.00;96642.63;4060934;29;20204;-49
2023/03/14 02:43:04;;;;;;;4.30;0.90;;;;;;;9.82;100.00;96631.47;4045795;29;20232;-49
2023/03/14 02:45:06;;;;;;;5.63;1.67;;;;;;;9.81;100.00;96637.25;4049407;28;20304;-49
2023/03/14 02:47:07;;;;;;;4.47;1.17;;;;;;;9.85;100.00;96644.56;4120061;28;20209;-49
2023/03/14 02:49:14;;;;;;;3.17;1.15;;;;;;;9.84;100.00;96636.66;4114196;28;20339;-48
2023/03/14 02:51:16;;;;;;;2.17;1.42;;;;;;;9.81;100.00;96627.13;4137243;28;20296;-49
2023/03/14 02:53:21;;;;;;;3.75;1.38;;;;;;;9.77;100.00;96628.00;4124226;28;20730;-49
2023/03/14 02:55:25;;;;;;;5.32;1.73;;;;;;;9.76;100.00;96613.53;4136920;28;20340;-48
2023/03/14 02:57:27;;;;;;;1.15;0.95;;;;;;;9.75;100.00;96602.91;4136751;28;20714;-48
2023/03/14 02:59:28;;;;;;;6.57;1.83;;;;;;;9.69;100.00;96601.34;4121185;28;20238;-48
2023/03/14 03:01:30;;;;;;;7.13;2.20;;;;;;;9.66;100.00;96613.66;4136076;28;20221;-50
2023/03/14 03:03:32;;;;;;;1.98;1.13;;;;;;;9.72;100.00;96611.69;4121684;28;20265;-48
2023/03/14 03:05:34;;;;;;;2.25;1.08;;;;;;;9.70;100.00;96598.34;4125110;28;20293;-48
2023/03/14 03:07:36;;;;;;;2.67;1.17;;;;;;;9.73;100.00;96602.38;4135616;28;20301;-49
2023/03/14 03:09:38;;;;;;;2.65;1.10;;;;;;;9.73;100.00;96618.75;4118508;28;20230;-50
2023/03/14 03:11:39;;;;;;;4.38;1.55;;;;;;;9.67;100.00;96630.88;4119493;28;20219;-47
2023/03/14 03:13:41;;;;;;;3.22;1.17;;;;;;;9.63;100.00;96618.88;4120006;28;20206;-49
2023/03/14 03:15:43;;;;;;;2.33;1.35;;;;;;;9.63;100.00;96625.16;4120061;28;20301;-47
2023/03/14 03:17:44;;;;;;;3.20;1.08;;;;;;;9.64;100.00;96615.06;4119979;28;20211;-48
2023/03/14 03:19:46;;;;;;;3.35;1.73;;;;;;;9.61;100.00;96589.13;4126674;28;20229;-49
2023/03/14 03:21:48;;;;;;;2.92;0.82;;;;;;;9.60;100.00;96592.16;4117273;28;20213;-48
2023/03/14 03:23:50;;;;;;;1.67;0.90;;;;;;;9.54;100.00;96582.41;4120234;28;20318;-48
2023/03/14 03:25:51;;;;;;;1.15;1.02;;;;;;;9.53;100.00;96580.78;4134003;28;20304;-49
2023/03/14 03:27:53;;;;;;;3.00;1.10;;;;;;;9.50;100.00;96570.44;4124502;28;20641;-48
2023/03/14 03:29:55;;;;;;;3.13;1.80;;;;;;;9.51;100.00;96574.78;4117435;28;20678;-48
2023/03/14 03:31:57;;;;;;;4.70;1.40;;;;;;;9.53;100.00;96564.38;4123173;28;20316;-48
2023/03/14 03:33:58;;;;;;;4.72;1.50;;;;;;;9.47;100.00;96565.53;4111174;28;20293;-49
2023/03/14 03:36:00;;;;;;;1.58;1.00;;;;;;;9.47;100.00;96552.72;4135459;28;20241;-49
2023/03/14 03:38:01;;;;;;;5.35;1.40;;;;;;;9.39;100.00;96553.38;4100886;28;20218;-48
2023/03/14 03:40:07;;;;;;;6.53;1.05;;;;;;;9.45;100.00;96554.13;4123790;28;20206;-49
2023/03/14 03:42:09;;;;;;;3.90;1.35;;;;;;;9.41;100.00;96566.75;4126600;28;20236;-49
2023/03/14 03:44:12;;;;;;;2.05;1.00;;;;;;;9.39;100.00;96563.47;4136102;28;20205;-49
2023/03/14 03:46:14;;;;;;;6.80;1.25;;;;;;;9.39;100.00;96547.91;4121958;28;20762;-49
2023/03/14 03:48:15;;;;;;;2.97;1.50;;;;;;;9.31;100.00;96540.38;4120038;28;20273;-48
2023/03/14 03:50:17;;;;;;;4.72;1.63;;;;;;;9.29;100.00;96549.94;4121413;28;20244;-49
2023/03/14 03:52:20;;;;;;;1.83;1.02;;;;;;;9.22;100.00;96535.84;4120651;28;20261;-48
2023/03/14 03:54:22;;;;;;;3.63;1.23;;;;;;;9.17;100.00;96544.06;4123410;28;20206;-48
2023/03/14 03:56:23;;;;;;;3.13;1.25;;;;;;;9.20;100.00;96538.03;4122584;28;20293;-48
2023/03/14 03:58:25;;;;;;;4.10;1.15;;;;;;;9.17;100.00;96541.34;4119943;28;20301;-47
2023/03/14 04:00:26;;;;;;;1.77;1.00;;;;;;;9.16;100.00;96537.00;4106311;28;20301;-48
2023/03/14 04:02:28;;;;;;;3.65;1.45;;;;;;;9.12;100.00;96530.47;4118646;28;20359;-48
2023/03/14 04:04:30;;;;;;;2.70;1.23;;;;;;;9.13;100.00;96532.09;4119966;28;20281;-49
2023/03/14 04:06:32;;;;;;;2.10;1.30;;;;;;;9.10;100.00;96533.50;4136990;28;20217;-48
2023/03/14 04:08:34;;;;;;;5.28;1.40;;;;;;;9.10;100.00;96517.16;4126175;28;20218;-48
2023/03/14 04:10:35;;;;;;;8.85;2.30;;;;;;;9.08;100.00;96534.91;4119457;28;20821;-48
2023/03/14 04:12:37;;;;;;;2.58;1.10;;;;;;;9.10;100.00;96536.25;4122015;28;20237;-48
2023/03/14 04:14:40;;;;;;;7.07;1.30;;;;;;;9.08;100.00;96541.16;4122625;28;20248;-48
2023/03/14 04:16:42;;;;;;;4.40;1.08;;;;;;;9.10;100.00;96527.22;4124681;28;20581;-48
2023/03/14 04:18:44;;;;;;;2.45;1.83;;;;;;;9.06;100.00;96537.91;4121602;28;20756;-48
2023/03/14 04:20:51;;;;;;;2.78;1.52;;;;;;;9.07;100.00;96534.06;4136694;28;20236;-49
2023/03/14 04:22:52;;;;;;;3.33;1.20;;;;;;;9.05;100.00;96539.00;4122040;28;20352;-49
2023/03/14 04:24:54;;;;;;;3.72;1.30;;;;;;;9.01;100.00;96539.88;4117320;28;20249;-48
2023/03/14 04:26:56;;;;;;;6.20;1.55;;;;;;;9.02;100.00;96536.06;4120005;28;20210;-48
2023/03/14 04:28:57;;;;;;;3.50;1.33;;;;;;;8.95;100.00;96532.84;4118242;28;20728;-48
2023/03/14 04:31:06;;;;;;;8.13;1.33;;;;;;;9.00;100.00;96540.97;4118392;28;20402;-48
2023/03/14 04:33:08;;;;;;;3.65;1.40;;;;;;;8.97;100.00;96530.66;4122013;28;20225;-48
2023/03/14 04:35:10;;;;;;;1.73;1.00;;;;;;;8.98;100.00;96526.81;4132867;28;20233;-49
2023/03/14 04:37:12;;;;;;;3.72;1.63;;;;;;;8.94;100.00;96506.69;4118407;28;20213;-48
2023/03/14 04:39:14;;;;;;;6.20;2.35;;;;;;;8.99;100.00;96503.88;4121902;28;20723;-48
2023/03/14 04:41:18;;;;;;;1.83;1.00;;;;;;;8.97;100.00;96506.91;4119462;28;20214;-48
2023/03/14 04:43:20;;;;;;;6.15;1.10;;;;;;;9.04;100.00;96501.09;4119652;28;20259;-48
2023/03/14 04:45:22;;;;;;;3.22;1.27;;;;;;;9.02;100.00;96481.50;4118037;28;20704;-48
2023/03/14 04:47:23;;;;;;;2.42;1.20;;;;;;;9.03;100.00;96475.72;4134399;28;20205;-47
2023/03/14 04:49:25;;;;;;;2.45;1.30;;;;;;;9.06;100.00;96482.53;4097667;28;20302;-48
2023/03/14 04:51:27;;;;;;;1.42;0.93;;;;;;;9.11;100.00;96477.03;4117090;28;20357;-49
2023/03/14 04:53:28;;;;;;;3.08;1.30;;;;;;;9.12;100.00;96462.28;4134742;28;20287;-48
2023/03/14 04:55:34;;;;;;;2.38;0.80;;;;;;;9.16;100.00;96469.59;4111873;28;20903;-48
2023/03/14 04:57:36;;;;;;;0.88;0.88;;;;;;;9.13;100.00;96472.91;4104783;28;20246;-50
2023/03/14 04:59:38;;;;;;;1.33;1.13;;;;;;;9.14;100.00;96481.91;4120755;28;20225;-49
2023/03/14 05:01:40;;;;;;;5.63;1.13;;;;;;;9.10;100.00;96464.50;4133982;28;20212;-49
2023/03/14 05:03:42;;;;;;;0.82;0.82;;;;;;;9.12;100.00;96478.63;4124137;28;20276;-48
2023/03/14 05:05:45;;;;;;;3.65;1.27;;;;;;;9.13;100.00;96448.34;4137875;28;20296;-49
2023/03/14 05:07:47;;;;;;;0.63;0.60;;;;;;;9.12;100.00;96456.81;4121328;28;20696;-49
2023/03/14 05:09:49;;;;;;;1.77;1.10;;;;;;;9.17;100.00;96445.84;4121137;28;20217;-49
2023/03/14 05:11:51;;;;;;;2.10;0.80;;;;;;;9.14;100.00;96446.44;4107507;28;20206;-49
2023/03/14 05:13:52;;;;;;;11.13;1.08;;;;;;;9.08;100.00;96442.16;4118438;28;20210;-50
2023/03/14 05:16:03;;;;;;;4.50;1.00;;;;;;;9.09;100.00;96460.13;4123274;28;20624;-49
2023/03/14 05:18:05;;;;;;;5.57;1.95;;;;;;;9.07;100.00;96457.69;4120123;28;20206;-49
2023/03/14 05:20:12;;;;;;;2.63;1.20;;;;;;;9.01;100.00;96460.78;4135895;28;20245;-49
2023/03/14 05:22:14;;;;;;;1.33;1.23;;;;;;;9.05;100.00;96453.63;4121100;28;20276;-49
2023/03/14 05:24:16;;;;;;;2.83;1.42;;;;;;;9.02;100.00;96456.94;4118581;28;20802;-48
2023/03/14 05:26:18;;;;;;;2.92;1.20;;;;;;;9.01;100.00;96452.59;4116938;28;20253;-49
2023/03/14 05:28:19;;;;;;;1.77;1.15;;;;;;;9.02;100.00;96457.75;4132566;28;20309;-51
2023/03/14 05:30:21;;;;;;;2.10;0.90;;;;;;;8.97;100.00;96462.47;4132243;28;20214;-50
2023/03/14 05:32:23;;;;;;;3.10;1.50;;;;;;;8.95;100.00;96451.03;4103727;28;20230;-49
2023/03/14 05:34:25;;;;;;;1.42;1.08;;;;;;;8.90;100.00;96440.19;4119107;28;20355;-49
2023/03/14 05:36:26;;;;;;;1.15;0.90;;;;;;;8.90;100.00;96445.63;4121372;28;20246;-49
2023/03/14 05:38:28;;;;;;;1.77;1.40;;;;;;;8.91;100.00;96429.00;4118830;28;20701;-49
2023/03/14 05:40:30;;;;;;;3.35;1.05;;;;;;;8.87;100.00;96436.09;4133251;28;20335;-50
2023/03/14 05:42:32;;;;;;;3.58;1.33;;;;;;;8.88;100.00;96429.53;4117891;28;20234;-49
2023/03/14 05:44:34;;;;;;;1.95;1.20;;;;;;;8.85;100.00;96432.03;4119697;28;20564;-49
2023/03/14 05:46:36;;;;;;;3.28;1.27;;;;;;;8.84;100.00;96435.88;4125108;28;20248;-50
2023/03/14 05:48:37;;;;;;;2.20;1.10;;;;;;;8.85;100.00;96421.97;4121205;28;20695;-50
2023/03/14 05:50:39;;;;;;;2.45;1.02;;;;;;;8.86;100.00;96425.47;4134472;28;20587;-51
2023/03/14 05:52:41;;;;;;;5.38;0.95;;;;;;;8.83;100.00;96426.06;4124589;28;20254;-50
2023/03/14 05:54:42;;;;;;;5.97;1.30;;;;;;;8.76;100.00;96422.88;4126941;28;20332;-50
2023/03/14 05:56:44;;;;;;;2.15;1.10;;;;;;;8.77;100.00;96410.88;4127153;28;20647;-50
2023/03/14 05:58:45;;;;;;;3.92;1.38;;;;;;;8.73;100.00;96415.28;4121885;28;20297;-50
2023/03/14 06:00:48;;;;;;;2.58;1.42;;;;;;;8.72;100.00;96416.38;4119007;28;20293;-50
2023/03/14 06:02:50;;;;;;;5.65;1.45;;;;;;;8.68;100.00;96407.97;4118236;28;20748;-50
2023/03/14 06:04:52;;;;;;;4.20;1.10;;;;;;;8.71;100.00;96414.75;4121583;28;20206;-50
2023/03/14 06:06:54;;;;;;;1.23;1.13;;;;;;;8.70;100.00;96416.66;4102565;28;20297;-49
2023/03/14 06:08:56;;;;;;;2.72;1.13;;;;;;;8.68;100.00;96405.25;4135830;28;20237;-50
2023/03/14 06:10:58;;;;;;;2.67;1.20;;;;;;;8.70;100.00;96408.47;4117067;28;20230;-50
2023/03/14 06:13:00;;;;;;;4.47;1.17;;;;;;;8.67;100.00;96414.53;4134860;28;20269;-50
2023/03/14 06:15:02;;;;;;;2.75;1.40;;;;;;;8.68;100.00;96405.25;4102012;28;20231;-49
2023/03/14 06:17:03;;;;;;;3.75;1.10;;;;;;;8.67;100.00;96402.78;4120913;28;20657;-50
2023/03/14 06:19:05;;;;;;;2.92;1.10;;;;;;;8.67;100.00;96408.25;4119966;28;20202;-49
2023/03/14 06:21:08;;;;;;;3.75;1.63;;;;;;;8.65;100.00;96400.38;4116300;28;20225;-49
2023/03/14 06:23:09;;;;;;;1.23;1.10;;;;;;;8.61;100.00;96406.69;4118462;28;20246;-50
2023/03/14 06:25:11;;;;;;;5.28;1.23;;;;;;;8.62;100.00;96400.16;4123831;28;20210;-51
2023/03/14 06:27:13;;;;;;;0.85;0.85;;;;;;;8.63;100.00;96396.31;4108273;28;20214;-49
2023/03/14 06:29:15;;;;;;;1.80;1.67;;;;;;;8.62;100.00;96411.06;4119398;28;20210;-49
2023/03/14 06:31:17;;;;;;;3.22;1.35;;;;;;;8.61;100.00;96406.69;4119598;28;20288;-50
2023/03/14 06:33:19;;;;;;;1.67;1.02;;;;;;;8.63;100.00;96401.75;4120758;28;20933;-51
2023/03/14 06:35:21;;;;;;;5.15;1.45;;;;;;;8.63;100.00;96408.00;4118821;28;20305;-50
2023/03/14 06:37:23;;;;;;;3.25;1.40;;;;;;;8.66;100.00;96396.56;4122997;28;20549;-49
2023/03/14 06:39:24;;;;;;;1.50;1.40;;;;;;;8.73;100.00;96396.19;4119700;28;20241;-50
2023/03/14 06:41:26;;;;;;;2.80;1.52;;;;;;;8.68;100.00;96405.25;4116083;28;20229;-50
2023/03/14 06:43:28;;;;;;;0.98;0.98;;;;;;;8.76;100.00;96390.16;4134127;28;20654;-52
2023/03/14 06:45:30;;;;;;;2.80;1.70;;;;;;;8.78;100.00;96398.88;4119467;28;20265;-50
2023/03/14 06:47:32;;;;;;;2.42;1.10;;;;;;;8.79;100.00;96403.22;4120723;28;20676;-50
2023/03/14 06:49:33;;;;;;;8.60;1.35;;;;;;;8.75;100.00;96419.34;4120011;28;20791;-50
2023/03/14 06:51:36;;;;;;;2.85;1.25;;;;;;;8.82;100.00;96402.66;4136166;28;20228;-50
2023/03/14 06:53:39;;;;;;;3.13;1.25;;;;;;;8.82;100.00;96414.34;4117633;28;20214;-49
2023/03/14 06:55:40;;;;;;;2.03;1.10;;;;;;;8.84;100.00;96419.50;4117091;28;20206;-50
2023/03/14 06:57:43;;;;;;;6.15;1.63;;;;;;;8.83;100.00;96412.44;4122397;28;20210;-50
2023/03/14 06:59:45;;;;;;;2.33;1.38;;;;;;;8.89;100.00;96411.28;4125011;28;20217;-49
2023/03/14 07:02:01;;;;;;;1.10;0.88;;;;;;;8.92;100.00;96425.16;4114736;28;20238;-49
2023/03/14 07:04:03;;;;;;;1.85;1.00;;;;;;;8.95;100.00;96415.59;4122841;28;20210;-50
2023/03/14 07:06:05;;;;;;;3.40;1.40;;;;;;;8.95;100.00;96426.50;4119802;28;20210;-49
2023/03/14 07:08:09;;;;;;;3.03;1.10;;;;;;;8.94;100.00;96420.22;4118760;28;20596;-50
2023/03/14 07:10:11;;;;;;;4.20;1.00;;;;;;;8.99;100.00;96443.88;4101837;28;20238;-50
2023/03/14 07:12:13;;;;;;;2.75;1.13;;;;;;;9.03;100.00;96428.56;4118772;28;20293;-49
2023/03/14 07:14:14;;;;;;;1.80;1.02;;;;;;;9.01;100.00;96426.13;4125298;28;20218;-49
2023/03/14 07:16:16;;;;;;;3.60;1.20;;;;;;;9.06;100.00;96426.06;4125605;28;20230;-49
2023/03/14 07:18:18;;;;;;;2.55;1.38;;;;;;;9.11;100.00;96431.47;4136254;28;20287;-49
2023/03/14 07:20:20;;;;;;;1.08;0.80;;;;;;;9.15;100.00;96427.03;4118729;28;20203;-50
2023/03/14 07:22:22;;;;;;;1.45;0.90;;;;;;;9.19;100.00;96440.91;4120584;28;20284;-50
2023/03/14 07:24:23;;;;;;;1.33;0.88;;;;;;;9.16;100.00;96449.69;4134211;28;20214;-51
2023/03/14 07:26:25;;;;;;;1.10;1.00;;;;;;;9.16;100.00;96430.59;4111298;28;20203;-49
2023/03/14 07:28:27;;;;;;;4.07;1.00;;;;;;;9.24;100.00;96440.84;4122513;28;20608;-49
2023/03/14 07:30:29;;;;;;;3.03;0.93;;;;;;;9.24;100.00;96446.31;4121418;28;20304;-48
2023/03/14 07:32:31;;;;;;;1.45;1.35;;;;;;;9.25;100.00;96458.84;4123415;28;20233;-48
2023/03/14 07:34:33;;;;;;;2.38;1.88;;;;;;;9.25;100.00;96458.84;4131476;28;20202;-48
2023/03/14 07:36:41;;;;;;;1.05;0.82;;;;;;;9.30;100.00;96467.81;4121099;28;20206;-48
2023/03/14 07:38:48;;;;;;;3.97;0.68;;;;;;;9.26;100.00;96449.53;4122037;28;20202;-49
2023/03/14 07:41:08;;;;;;;1.13;0.90;;;;;;;9.28;100.00;96459.06;4135076;28;20198;-49
2023/03/14 07:43:12;;;;;;;0.93;0.90;;;;;;;9.30;100.00;96467.81;4135963;28;20234;-49
2023/03/14 07:45:14;;;;;;;0.93;0.88;;;;;;;9.32;100.00;96468.31;4120280;28;20261;-49
2023/03/14 07:47:16;;;;;;;2.15;1.23;;;;;;;9.34;100.00;96478.94;4116401;28;20206;-50
2023/03/14 07:49:17;;;;;;;3.35;1.20;;;;;;;9.33;100.00;96469.94;4111913;28;20376;-49
2023/03/14 07:51:19;;;;;;;1.63;0.90;;;;;;;9.32;100.00;96475.66;4135745;28;20305;-49
2023/03/14 07:53:36;;;;;;;1.95;0.82;;;;;;;9.31;100.00;96482.25;4120856;28;20226;-47
2023/03/14 07:55:39;;;;;;;0.82;0.65;;;;;;;9.34;100.00;96476.22;4114484;28;20258;-48
2023/03/14 07:57:41;;;;;;;1.55;1.08;;;;;;;9.26;100.00;96477.66;4105037;28;20218;-47
2023/03/14 07:59:43;;;;;;;0.80;0.80;;;;;;;9.26;100.00;96474.09;4119241;28;20210;-47
2023/03/14 08:01:45;;;;;;;0.95;0.88;;;;;;;9.27;100.00;96473.81;4131808;28;20702;-47
2023/03/14 08:03:56;;;;;;;1.23;0.90;;;;;;;9.27;100.00;96484.72;4126820;28;20214;-46
2023/03/14 08:06:07;;;;;;;0.90;0.90;;;;;;;9.26;100.00;96460.47;4122905;28;20312;-46
2023/03/14 08:08:19;;;;;;;2.08;1.20;;;;;;;9.33;100.00;96474.56;4125172;28;20213;-49
2023/03/14 08:10:22;;;;;;;3.72;0.80;;;;;;;9.42;100.00;96478.28;4118986;28;20203;-47
2023/03/14 08:12:23;;;;;;;0.80;0.80;;;;;;;9.49;100.00;96470.56;4128937;28;20238;-47
2023/03/14 08:14:25;;;;;;;1.42;0.75;;;;;;;9.52;100.00;96469.94;4120315;28;20301;-47
2023/03/14 08:16:27;;;;;;;1.38;0.60;;;;;;;9.55;100.00;96464.72;4119928;28;20211;-49
2023/03/14 08:18:29;;;;;;;1.00;0.80;;;;;;;9.62;100.00;96454.25;4122676;28;20206;-47
2023/03/14 08:20:35;;;;;;;1.27;1.13;;;;;;;9.67;100.00;96467.03;4134043;28;20322;-48
2023/03/14 08:22:40;;;;;;;0.70;0.70;;;;;;;9.73;100.00;96449.44;4118915;28;20222;-48
2023/03/14 08:25:08;;;;;;;0.80;0.80;;;;;;;9.71;100.00;96451.66;4118347;28;20237;-47
2023/03/14 08:27:16;;;;;;;0.98;0.70;;;;;;;9.72;100.00;96456.03;4120268;28;20620;-47
2023/03/14 08:29:33;;;;;;;2.88;0.80;;;;;;;9.78;100.00;96455.66;4121521;28;21059;-48
2023/03/14 08:31:38;;;;;;;1.85;1.00;;;;;;;9.78;100.00;96457.56;4120986;28;20299;-47
2023/03/14 08:33:40;;;;;;;1.25;1.15;;;;;;;9.81;100.00;96467.94;4118688;28;20215;-48
2023/03/14 08:35:41;;;;;;;0.70;0.60;;;;;;;9.78;100.00;96460.31;4132645;28;20853;-47
2023/03/14 08:37:43;;;;;;;0.70;0.70;;;;;;;9.81;100.00;96457.00;4134014;28;20209;-47
2023/03/14 08:39:45;;;;;;;0.80;0.80;;;;;;;9.80;100.00;96461.63;4115934;28;20297;-47
2023/03/14 08:41:49;;;;;;;0.77;0.70;;;;;;;9.73;100.00;96454.91;4121084;28;20692;-48
2023/03/14 08:43:51;;;;;;;1.60;0.75;;;;;;;9.71;100.00;96462.59;4103372;28;20257;-47
2023/03/14 08:45:52;;;;;;;0.77;0.77;;;;;;;9.72;100.00;96464.22;4116728;28;20304;-47
2023/03/14 08:47:54;;;;;;;1.00;0.90;;;;;;;9.66;100.00;96477.13;4124077;28;20305;-47
2023/03/14 08:49:56;;;;;;;0.65;0.65;;;;;;;9.60;100.00;96482.94;4124297;28;20210;-47
2023/03/14 08:51:58;;;;;;;1.38;0.93;;;;;;;9.60;100.00;96472.03;4119028;28;20234;-47
2023/03/14 08:54:00;;;;;;;1.17;1.17;;;;;;;9.67;100.00;96477.97;4116222;28;20671;-47
2023/03/14 08:56:03;;;;;;;1.27;0.90;;;;;;;9.61;100.00;96451.84;4121045;28;20205;-48
2023/03/14 08:58:06;;;;;;;2.65;0.90;;;;;;;9.61;100.00;96476.41;4125618;28;20213;-47
2023/03/14 09:00:12;;;;;;;0.77;0.68;;;;;;;9.67;100.00;96475.22;4121194;28;20686;-47
2023/03/14 09:02:14;;;;;;;1.00;0.90;;;;;;;9.66;100.00;96466.22;4137054;28;20320;-47
2023/03/14 09:04:16;;;;;;;1.02;0.90;;;;;;;9.71;100.00;96485.25;4107805;28;20210;-47
2023/03/14 09:06:18;;;;;;;2.92;0.95;;;;;;;9.74;100.00;96479.19;4119055;28;20266;-48
2023/03/14 09:08:20;;;;;;;0.93;0.93;;;;;;;9.70;100.00;96485.56;4122515;28;20237;-46
2023/03/14 09:10:22;;;;;;;0.80;0.80;;;;;;;9.73;100.00;96482.22;4122834;28;20209;-46
2023/03/14 09:12:26;;;;;;;1.80;0.80;;;;;;;9.78;100.00;96477.50;4121237;28;20234;-49
2023/03/14 09:14:28;;;;;;;1.85;1.10;;;;;;;9.85;100.00;96474.41;4121381;28;20211;-48
2023/03/14 09:16:36;;;;;;;0.70;0.70;;;;;;;9.92;100.00;96475.66;4121482;28;20213;-48
2023/03/14 09:18:38;;;;;;;0.75;0.75;;;;;;;9.89;100.00;96478.19;4132999;28;20732;-47
2023/03/14 09:20:40;;;;;;;0.60;0.52;;;;;;;9.98;100.00;96474.50;4118389;28;20211;-47
2023/03/14 09:22:41;;;;;;;0.85;0.85;;;;;;;10.05;100.00;96477.69;4137619;28;20226;-49
2023/03/14 09:24:44;;;;;;;0.93;0.93;;;;;;;10.27;100.00;96482.56;4136172;28;20214;-47
2023/03/14 09:26:46;;;;;;;0.80;0.80;;;;;;;10.44;100.00;96469.13;4137440;28;20205;-48
2023/03/14 09:28:48;;;;;;;1.70;1.02;;;;;;;10.46;100.00;96469.63;4127712;28;20285;-47
2023/03/14 09:30:50;;;;;;;0.77;0.70;;;;;;;10.48;100.00;96473.69;4121253;28;20235;-48
2023/03/14 09:32:52;;;;;;;3.72;0.80;;;;;;;10.54;100.00;96482.66;4136353;28;20236;-46
2023/03/14 09:34:53;;;;;;;0.70;0.70;;;;;;;10.50;100.00;96481.63;4118555;28;20238;-48
2023/03/14 09:36:56;;;;;;;0.80;0.80;;;;;;;10.51;100.00;96485.97;4119711;28;20213;-48
2023/03/14 09:38:58;;;;;;;1.30;0.60;;;;;;;10.44;100.00;96477.34;4121532;28;20302;-48
2023/03/14 09:41:01;;;;;;;0.70;0.70;;;;;;;10.44;100.00;96477.34;4137094;28;20304;-46